YBR weather

Brandon Municipal Airport
Brandon, Manitoba, Canada

Public forecast

Using degrees Celsius for public forecast. Weather courtesy of forecast.io.

Current aviation weather report (METAR) for Brandon Municipal Airport

Retrieved 2019/11/12 09:00 UTC (47 minutes ago):

CYBR 120900Z 17004KT 15SM SCT250 M16/M19 A3020 RMK CI4 SLP267

Aviation forecast (TAF) for Brandon Municipal Airport

Retrieved 2019/11/12 06:51 UTC (3 hours ago):

TAF TAF CYBR 120549Z 1206/1218 22006KT P6SM SKC RMK NXT FCST BY 121200Z